createdAt,value
2018-07-11T00:01:13.629Z,100927.95
2018-07-11T00:03:44.640Z,100928.69
2018-07-11T00:06:14.918Z,100925.91
2018-07-11T00:08:43.285Z,100919.14
2018-07-11T00:11:12.120Z,100921.16
2018-07-11T00:13:41.761Z,100916.19
2018-07-11T00:16:10.797Z,100915.64
2018-07-11T00:18:39.168Z,100908.25
2018-07-11T00:21:07.718Z,100903.38
2018-07-11T00:23:36.558Z,100907.92
2018-07-11T00:26:06.405Z,100902.98
2018-07-11T00:28:35.333Z,100894.78
2018-07-11T00:31:03.793Z,100877.94
2018-07-11T00:33:34.601Z,100873.13
2018-07-11T00:36:05.361Z,100875.52
2018-07-11T00:38:35.768Z,100869.92
2018-07-11T00:41:04.699Z,100873.09
2018-07-11T00:43:35.834Z,100865.75
2018-07-11T00:46:05.666Z,100858.56
2018-07-11T00:48:35.318Z,100849.83
2018-07-11T00:51:05.551Z,100847.88
2018-07-11T00:53:36.716Z,100846.27
2018-07-11T00:56:05.795Z,100837.22
2018-07-11T00:58:49.263Z,100833.16
2018-07-11T01:01:17.727Z,100840.43
2018-07-11T01:03:55.710Z,100849.80
2018-07-11T01:06:24.076Z,100852.00
2018-07-11T01:08:56.481Z,100850.34
2018-07-11T01:11:25.414Z,100847.05
2018-07-11T01:13:53.845Z,100856.12
2018-07-11T01:16:23.558Z,100860.12
2018-07-11T01:19:07.985Z,100858.43
2018-07-11T01:21:36.850Z,100851.63
2018-07-11T01:24:06.273Z,100847.69
2018-07-11T01:26:36.650Z,100843.38
2018-07-11T01:29:06.908Z,100840.20
2018-07-11T01:31:36.388Z,100830.08
2018-07-11T01:34:06.993Z,100838.20
2018-07-11T01:36:36.220Z,100833.80
2018-07-11T01:39:07.105Z,100842.08
2018-07-11T01:41:36.342Z,100844.48
2018-07-11T01:44:05.781Z,100848.92
2018-07-11T01:46:44.104Z,100844.42
2018-07-11T01:49:13.425Z,100841.52
2018-07-11T01:51:52.948Z,100843.91
2018-07-11T01:54:21.376Z,100854.41
2018-07-11T01:56:50.769Z,100858.62
2018-07-11T01:59:20.065Z,100859.56
2018-07-11T02:01:49.498Z,100853.47
2018-07-11T02:04:18.756Z,100854.21
2018-07-11T02:06:47.117Z,100855.89
2018-07-11T02:09:16.643Z,100854.58
2018-07-11T02:11:45.285Z,100854.91
2018-07-11T02:14:13.664Z,100855.28
2018-07-11T02:16:42.753Z,100851.45
2018-07-11T02:19:12.509Z,100850.87
2018-07-11T02:21:41.755Z,100848.95
2018-07-11T02:24:10.110Z,100851.72
2018-07-11T02:26:39.409Z,100848.72
2018-07-11T02:29:07.746Z,100851.08
2018-07-11T02:31:37.014Z,100855.22
2018-07-11T02:34:06.238Z,100846.50
2018-07-11T02:36:35.973Z,100846.64
2018-07-11T02:39:06.391Z,100850.23
2018-07-11T02:41:37.124Z,100852.30
2018-07-11T02:44:06.525Z,100853.73
2018-07-11T02:46:40.901Z,100852.56
2018-07-11T02:49:10.286Z,100850.87
2018-07-11T02:51:39.468Z,100850.06
2018-07-11T02:54:07.830Z,100856.94
2018-07-11T02:56:37.129Z,100846.59
2018-07-11T02:59:06.051Z,100845.16
2018-07-11T03:01:35.726Z,100844.31
2018-07-11T03:04:06.065Z,100841.92
2018-07-11T03:06:36.671Z,100843.50
2018-07-11T03:09:06.006Z,100837.55
2018-07-11T03:11:36.293Z,100844.08
2018-07-11T03:14:07.058Z,100844.31
2018-07-11T03:16:36.050Z,100846.00
2018-07-11T03:19:06.065Z,100850.98
2018-07-11T03:21:35.728Z,100852.19
2018-07-11T03:24:05.509Z,100852.92
2018-07-11T03:26:35.868Z,100860.43
2018-07-11T03:29:05.001Z,100859.45
2018-07-11T03:31:35.480Z,100862.08
2018-07-11T03:34:05.401Z,100863.05
2018-07-11T03:36:35.717Z,100865.05
2018-07-11T03:39:06.350Z,100861.01
2018-07-11T03:41:35.678Z,100866.83
2018-07-11T03:44:07.131Z,100865.58
2018-07-11T03:46:36.128Z,100859.12
2018-07-11T03:49:06.117Z,100859.25
2018-07-11T03:51:35.709Z,100865.68
2018-07-11T03:54:05.453Z,100867.93
2018-07-11T03:56:35.211Z,100865.02
2018-07-11T03:59:05.833Z,100862.62
2018-07-11T04:01:35.120Z,100861.91
2018-07-11T04:04:05.521Z,100863.91
2018-07-11T04:06:33.913Z,100868.03
2018-07-11T04:09:04.335Z,100871.69
2018-07-11T04:11:32.711Z,100870.87
2018-07-11T04:14:01.662Z,100868.97
2018-07-11T04:16:31.979Z,100871.96
2018-07-11T04:19:01.701Z,100877.30
2018-07-11T04:21:31.996Z,100873.22
2018-07-11T04:24:01.370Z,100871.27
2018-07-11T04:26:30.769Z,100875.44
2018-07-11T04:29:00.210Z,100877.83
2018-07-11T04:31:29.517Z,100876.59
2018-07-11T04:33:58.778Z,100875.11
2018-07-11T04:36:27.988Z,100879.80
2018-07-11T04:38:57.273Z,100880.63
2018-07-11T04:41:25.641Z,100878.33
2018-07-11T04:43:54.001Z,100879.17
2018-07-11T04:46:22.373Z,100878.77
2018-07-11T04:48:50.728Z,100879.39
2018-07-11T04:51:19.999Z,100878.52
2018-07-11T04:53:48.377Z,100880.26
2018-07-11T04:56:17.622Z,100883.13
2018-07-11T04:58:47.019Z,100870.80
2018-07-11T05:01:16.479Z,100866.10
2018-07-11T05:03:44.850Z,100867.14
2018-07-11T05:06:13.834Z,100865.62
2018-07-11T05:08:42.180Z,100856.93
2018-07-11T05:11:11.550Z,100856.84
2018-07-11T05:13:39.861Z,100853.08
2018-07-11T05:16:08.248Z,100845.06
2018-07-11T05:18:36.673Z,100847.05
2018-07-11T05:21:06.428Z,100846.83
2018-07-11T05:23:35.345Z,100849.88
2018-07-11T05:26:05.758Z,100859.74
2018-07-11T05:28:35.782Z,100861.90
2018-07-11T05:31:05.577Z,100866.18
2018-07-11T05:33:35.099Z,100861.80
2018-07-11T05:36:05.198Z,100869.00
2018-07-11T05:38:34.924Z,100868.67
2018-07-11T05:41:04.434Z,100871.92
2018-07-11T05:43:34.682Z,100863.91
2018-07-11T05:46:05.006Z,100861.61
2018-07-11T05:48:34.964Z,100858.45
2018-07-11T05:51:04.157Z,100866.83
2018-07-11T05:53:34.416Z,100863.22
2018-07-11T05:56:04.158Z,100870.10
2018-07-11T05:58:33.680Z,100871.02
2018-07-11T06:01:03.280Z,100874.49
2018-07-11T06:03:32.762Z,100874.19
2018-07-11T06:06:01.723Z,100872.52
2018-07-11T06:08:30.082Z,100879.73
2018-07-11T06:10:58.428Z,100871.30
2018-07-11T06:13:26.865Z,100868.42
2018-07-11T06:15:55.181Z,100879.45
2018-07-11T06:18:24.796Z,100881.91
2018-07-11T06:20:54.021Z,100884.18
2018-07-11T06:23:22.376Z,100882.73
2018-07-11T06:25:51.636Z,100883.58
2018-07-11T06:28:19.970Z,100880.66
2018-07-11T06:30:48.316Z,100881.44
2018-07-11T06:33:16.652Z,100877.20
2018-07-11T06:35:45.413Z,100880.02
2018-07-11T06:38:13.746Z,100885.38
2018-07-11T06:40:42.082Z,100884.19
2018-07-11T06:43:10.409Z,100881.30
2018-07-11T06:45:38.741Z,100880.05
2018-07-11T06:48:07.082Z,100873.86
2018-07-11T06:50:35.465Z,100875.66
2018-07-11T06:53:06.022Z,100873.05
2018-07-11T06:55:36.373Z,100873.63
2018-07-11T06:58:05.362Z,100874.69
2018-07-11T07:00:36.334Z,100864.59
2018-07-11T07:03:05.703Z,100871.05
2018-07-11T07:05:35.442Z,100866.07
2018-07-11T07:08:06.422Z,100866.45
2018-07-11T07:10:36.745Z,100870.39
2018-07-11T07:13:07.517Z,100862.48
2018-07-11T07:15:36.937Z,100860.00
2018-07-11T07:18:07.552Z,100866.69
2018-07-11T07:20:35.881Z,100867.37
2018-07-11T07:23:06.065Z,100867.58
2018-07-11T07:25:35.375Z,100869.86
2018-07-11T07:28:05.137Z,100867.16
2018-07-11T07:30:35.350Z,100869.67
2018-07-11T07:33:05.117Z,100860.44
2018-07-11T07:35:35.552Z,100873.87
2018-07-11T07:38:05.270Z,100872.27
2018-07-11T07:40:35.354Z,100866.37
2018-07-11T07:43:05.750Z,100866.22
2018-07-11T07:45:36.008Z,100868.02
2018-07-11T07:48:06.353Z,100873.50
2018-07-11T07:50:37.120Z,100868.63
2018-07-11T07:53:06.345Z,100877.11
2018-07-11T07:55:37.136Z,100873.50
2018-07-11T07:58:06.769Z,100875.78
2018-07-11T08:00:36.542Z,100866.70
2018-07-11T08:03:07.237Z,100877.48
2018-07-11T08:05:37.550Z,100871.53
2018-07-11T08:08:06.754Z,100867.23
2018-07-11T08:10:36.013Z,100860.92
2018-07-11T08:13:06.134Z,100861.10
2018-07-11T08:15:36.897Z,100861.79
2018-07-11T08:18:06.052Z,100862.30
2018-07-11T08:20:35.427Z,100862.11
2018-07-11T08:23:16.389Z,100861.96
2018-07-11T08:25:57.201Z,100858.97
2018-07-11T08:29:36.653Z,100860.16
2018-07-11T08:32:34.480Z,100863.78
2018-07-11T08:37:17.109Z,100861.16
2018-07-11T08:39:59.969Z,100866.11
2018-07-11T08:44:50.452Z,100858.50
2018-07-11T08:47:32.909Z,100864.31
2018-07-11T08:50:13.561Z,100870.75
2018-07-11T08:52:55.001Z,100867.62
2018-07-11T08:57:36.526Z,100865.16
2018-07-11T09:00:18.064Z,100858.16
2018-07-11T09:03:01.783Z,100863.16
2018-07-11T09:05:43.621Z,100865.09
2018-07-11T09:08:20.573Z,100862.70
2018-07-11T09:13:05.142Z,100867.64
2018-07-11T09:15:43.965Z,100868.03
2018-07-11T09:18:27.112Z,100854.14
2018-07-11T09:21:08.558Z,100858.56
2018-07-11T09:23:45.781Z,100847.58
2018-07-11T09:26:15.121Z,100847.46
2018-07-11T09:28:43.448Z,100848.98
2018-07-11T09:31:11.784Z,100847.97
2018-07-11T09:33:40.131Z,100852.56
2018-07-11T09:36:08.587Z,100860.05
2018-07-11T09:38:37.041Z,100854.64
2018-07-11T09:41:06.053Z,100850.73
2018-07-11T09:43:35.378Z,100847.94
2018-07-11T09:46:05.373Z,100851.74
2018-07-11T09:48:35.644Z,100851.59
2018-07-11T09:51:05.953Z,100851.64
2018-07-11T09:53:36.178Z,100840.56
2018-07-11T09:56:05.121Z,100843.06
2018-07-11T09:58:34.805Z,100845.17
2018-07-11T10:01:09.389Z,100843.84
2018-07-11T10:03:37.736Z,100842.15
2018-07-11T10:06:06.057Z,100845.39
2018-07-11T10:08:35.325Z,100847.41
2018-07-11T10:11:05.118Z,100854.06
2018-07-11T10:13:34.862Z,100856.48
2018-07-11T10:16:05.034Z,100856.47
2018-07-11T10:18:35.151Z,100856.03
2018-07-11T10:21:05.440Z,100843.83
2018-07-11T10:23:35.873Z,100845.41
2018-07-11T10:26:06.726Z,100845.30
2018-07-11T10:28:36.397Z,100843.11
2018-07-11T10:31:06.037Z,100837.89
2018-07-11T10:33:35.783Z,100837.78
2018-07-11T10:36:04.704Z,100835.31
2018-07-11T10:38:34.316Z,100829.99
2018-07-11T10:41:04.325Z,100833.09
2018-07-11T10:43:33.866Z,100831.16
2018-07-11T10:46:03.165Z,100828.27
2018-07-11T10:48:31.921Z,100820.57
2018-07-11T10:51:00.234Z,100816.39
2018-07-11T10:53:28.608Z,100812.38
2018-07-11T10:55:57.066Z,100817.52
2018-07-11T10:58:25.422Z,100816.81
2018-07-11T11:01:05.695Z,100821.39
2018-07-11T11:03:30.565Z,100827.94
2018-07-11T11:05:58.892Z,100832.92
2018-07-11T11:08:27.978Z,100831.86
2018-07-11T11:10:56.321Z,100821.44
2018-07-11T11:13:25.193Z,100826.55
2018-07-11T11:15:54.393Z,100825.38
2018-07-11T11:18:23.316Z,100820.69
2018-07-11T11:20:53.076Z,100822.00
2018-07-11T11:23:21.507Z,100824.05
2018-07-11T11:25:49.867Z,100819.61
2018-07-11T11:28:18.225Z,100820.60
2018-07-11T11:30:46.552Z,100819.20
2018-07-11T11:33:14.882Z,100818.16
2018-07-11T11:35:43.414Z,100816.87
2018-07-11T11:38:11.641Z,100813.79
2018-07-11T11:40:40.019Z,100810.78
2018-07-11T11:43:08.369Z,100818.98
2018-07-11T11:45:36.705Z,100812.89
2018-07-11T11:48:05.686Z,100811.45
2018-07-11T11:50:35.901Z,100807.61
2018-07-11T11:53:06.321Z,100805.66
2018-07-11T11:55:36.593Z,100801.59
2018-07-11T11:58:05.933Z,100800.59
2018-07-11T12:00:37.496Z,100799.06
2018-07-11T12:03:07.353Z,100797.92
2018-07-11T12:05:36.453Z,100798.23
2018-07-11T12:08:05.283Z,100800.93
2018-07-11T12:10:35.628Z,100796.78
2018-07-11T12:13:05.276Z,100787.95
2018-07-11T12:15:35.697Z,100790.16
2018-07-11T12:18:05.155Z,100786.59
2018-07-11T12:20:35.686Z,100782.22
2018-07-11T12:23:05.165Z,100787.48
2018-07-11T12:25:35.827Z,100785.24
2018-07-11T12:28:05.811Z,100780.84
2018-07-11T12:30:36.647Z,100779.21
2018-07-11T12:33:06.133Z,100781.98
2018-07-11T12:35:36.693Z,100786.23
2018-07-11T12:38:05.825Z,100779.30
2018-07-11T12:40:36.013Z,100777.00
2018-07-11T12:43:06.787Z,100771.98
2018-07-11T12:45:36.013Z,100762.97
2018-07-11T12:48:11.522Z,100760.73
2018-07-11T12:50:40.930Z,100768.44
2018-07-11T12:53:10.145Z,100757.90
2018-07-11T12:55:39.322Z,100758.18
2018-07-11T12:58:08.549Z,100758.26
2018-07-11T13:00:38.265Z,100753.45
2018-07-11T13:03:07.621Z,100755.14
2018-07-11T13:05:36.812Z,100748.41
2018-07-11T13:08:06.096Z,100742.41
2018-07-11T13:10:36.545Z,100745.77
2018-07-11T13:13:05.817Z,100743.00
2018-07-11T13:15:35.415Z,100733.25
2018-07-11T13:18:05.541Z,100725.17
2018-07-11T13:20:35.704Z,100732.88
2018-07-11T13:23:06.913Z,100740.50
2018-07-11T13:25:36.330Z,100735.47
2018-07-11T13:28:07.120Z,100734.02
2018-07-11T13:30:35.996Z,100739.38
2018-07-11T13:33:06.307Z,100733.23
2018-07-11T13:35:36.995Z,100730.33
2018-07-11T13:38:06.386Z,100726.78
2018-07-11T13:40:36.007Z,100728.34
2018-07-11T13:43:06.237Z,100727.81
2018-07-11T13:45:37.103Z,100729.63
2018-07-11T13:48:06.439Z,100724.03
2018-07-11T13:50:35.988Z,100722.28
2018-07-11T13:53:06.329Z,100719.86
2018-07-11T13:55:37.009Z,100712.33
2018-07-11T13:58:06.639Z,100704.63
2018-07-11T14:00:35.870Z,100710.23
2018-07-11T14:03:05.450Z,100706.23
2018-07-11T14:05:35.174Z,100716.05
2018-07-11T14:08:04.583Z,100711.23
2018-07-11T14:10:34.072Z,100709.02
2018-07-11T14:13:02.964Z,100700.07
2018-07-11T14:15:31.996Z,100702.28
2018-07-11T14:18:00.353Z,100697.73
2018-07-11T14:20:28.686Z,100689.44
2018-07-11T14:23:06.506Z,100690.53
2018-07-11T14:25:38.808Z,100685.10
2018-07-11T14:28:07.170Z,100686.30
2018-07-11T14:30:37.312Z,100697.09
2018-07-11T14:33:07.825Z,100688.04
2018-07-11T14:35:36.605Z,100689.58
2018-07-11T14:38:06.116Z,100689.83
2018-07-11T14:40:35.871Z,100688.91
2018-07-11T14:43:06.327Z,100690.48
2018-07-11T14:45:35.772Z,100694.25
2018-07-11T14:48:09.678Z,100691.90
2018-07-11T14:50:38.009Z,100686.45
2018-07-11T14:53:06.696Z,100689.19
2018-07-11T14:55:36.454Z,100690.31
2018-07-11T14:58:06.027Z,100693.18
2018-07-11T15:00:35.205Z,100686.16
2018-07-11T15:03:04.769Z,100688.20
2018-07-11T15:05:36.283Z,100690.50
2018-07-11T15:08:06.345Z,100689.69
2018-07-11T15:10:36.947Z,100695.57
2018-07-11T15:13:07.486Z,100694.48
2018-07-11T15:15:35.835Z,100697.26
2018-07-11T15:18:05.506Z,100695.73
2018-07-11T15:20:36.071Z,100684.33
2018-07-11T15:23:05.956Z,100689.70
2018-07-11T15:25:36.037Z,100688.02
2018-07-11T15:28:06.665Z,100687.73
2018-07-11T15:30:36.008Z,100697.45
2018-07-11T15:33:06.587Z,100690.10
2018-07-11T15:35:35.388Z,100689.92
2018-07-11T15:38:04.433Z,100695.19
2018-07-11T15:40:33.819Z,100688.66
2018-07-11T15:43:03.326Z,100687.83
2018-07-11T15:45:34.475Z,100693.54
2018-07-11T15:48:04.393Z,100696.62
2018-07-11T15:50:34.985Z,100695.75
2018-07-11T15:53:04.917Z,100694.23
2018-07-11T15:55:36.470Z,100689.69
2018-07-11T15:58:10.636Z,100681.26
2018-07-11T16:00:40.432Z,100676.94
2018-07-11T16:03:10.364Z,100668.91
2018-07-11T16:05:42.077Z,100673.64
2018-07-11T16:08:10.395Z,100679.98
2018-07-11T16:10:41.377Z,100679.86
2018-07-11T16:13:09.712Z,100676.44
2018-07-11T16:15:38.077Z,100676.32
2018-07-11T16:18:07.657Z,100682.06
2018-07-11T16:20:36.462Z,100677.06
2018-07-11T16:23:05.856Z,100684.09
2018-07-11T16:25:35.217Z,100678.88
2018-07-11T16:28:06.216Z,100672.42
2018-07-11T16:30:35.498Z,100676.64
2018-07-11T16:33:07.908Z,100678.73
2018-07-11T16:35:36.264Z,100684.22
2018-07-11T16:38:05.958Z,100680.20
2018-07-11T16:40:36.390Z,100682.59
2018-07-11T16:43:06.436Z,100686.11
2018-07-11T16:45:36.189Z,100690.68
2018-07-11T16:48:05.944Z,100687.80
2018-07-11T16:50:35.415Z,100687.87
2018-07-11T16:53:04.352Z,100684.50
2018-07-11T16:55:35.928Z,100690.03
2018-07-11T16:58:05.336Z,100692.36
2018-07-11T17:00:35.115Z,100697.33
2018-07-11T17:03:06.689Z,100696.62
2018-07-11T17:06:12.781Z,100695.33
2018-07-11T17:08:47.986Z,100699.16
2018-07-11T17:11:21.844Z,100700.39
2018-07-11T17:13:54.521Z,100703.92
2018-07-11T17:16:48.029Z,100697.67
2018-07-11T17:19:34.696Z,100701.13
2018-07-11T17:22:06.749Z,100696.55
2018-07-11T17:24:44.577Z,100696.88
2018-07-11T17:27:14.185Z,100694.44
2018-07-11T17:29:42.817Z,100696.92
2018-07-11T17:32:12.361Z,100694.83
2018-07-11T17:34:41.280Z,100694.46
2018-07-11T17:37:11.011Z,100703.12
2018-07-11T17:39:50.191Z,100703.23
2018-07-11T17:42:25.251Z,100706.45
2018-07-11T17:45:01.095Z,100696.09
2018-07-11T17:47:32.107Z,100698.59
2018-07-11T17:50:06.442Z,100696.09
2018-07-11T17:52:46.325Z,100695.28
2018-07-11T17:55:24.847Z,100696.55
2018-07-11T17:57:55.420Z,100707.58
2018-07-11T18:00:53.044Z,100709.17
2018-07-11T18:04:34.333Z,100703.09
2018-07-11T18:07:11.421Z,100709.55
2018-07-11T18:09:58.932Z,100705.61
2018-07-11T18:12:33.848Z,100715.88
2018-07-11T18:16:11.098Z,100723.20
2018-07-11T18:18:55.009Z,100716.77
2018-07-11T18:21:34.578Z,100706.84
2018-07-11T18:26:18.257Z,100714.39
2018-07-11T18:31:05.101Z,100712.83
2018-07-11T18:33:44.799Z,100712.67
2018-07-11T18:36:23.783Z,100723.78
2018-07-11T18:39:00.357Z,100726.75
2018-07-11T18:41:36.689Z,100736.23
2018-07-11T18:44:17.441Z,100730.92
2018-07-11T18:46:57.273Z,100728.58
2018-07-11T18:49:44.737Z,100728.02
2018-07-11T18:52:21.662Z,100727.89
2018-07-11T18:54:57.220Z,100735.41
2018-07-11T18:57:32.130Z,100740.66
2018-07-11T19:00:10.305Z,100739.39
2018-07-11T19:03:05.161Z,100738.13
2018-07-11T19:05:45.301Z,100744.77
2018-07-11T19:08:23.185Z,100751.59
2018-07-11T19:11:24.613Z,100770.36
2018-07-11T19:14:02.363Z,100785.67
2018-07-11T19:17:05.173Z,100783.13
2018-07-11T19:19:37.450Z,100777.20
2018-07-11T19:22:19.565Z,100778.98
2018-07-11T19:24:59.222Z,100772.23
2018-07-11T19:27:38.274Z,100776.61
2018-07-11T19:30:12.177Z,100780.61
2018-07-11T19:33:49.453Z,100783.65
2018-07-11T19:36:38.416Z,100774.58
2018-07-11T19:39:12.469Z,100780.37
2018-07-11T19:42:12.207Z,100780.45
2018-07-11T19:45:01.885Z,100792.91
2018-07-11T19:47:41.458Z,100790.60
2018-07-11T19:50:25.676Z,100790.91
2018-07-11T19:53:05.884Z,100805.28
2018-07-11T19:55:47.817Z,100796.41
2018-07-11T19:58:16.203Z,100789.05
2018-07-11T20:00:44.714Z,100796.05
2018-07-11T20:03:13.070Z,100809.20
2018-07-11T20:05:53.340Z,100812.07
2018-07-11T20:08:12.164Z,100816.12
2018-07-11T20:10:41.429Z,100816.68
2018-07-11T20:13:09.869Z,100819.41
2018-07-11T20:15:38.266Z,100813.84
2018-07-11T20:18:06.656Z,100809.44
2018-07-11T20:20:36.045Z,100804.38
2018-07-11T20:23:06.240Z,100798.88
2018-07-11T20:25:35.965Z,100801.95
2018-07-11T20:28:05.928Z,100799.95
2018-07-11T20:30:36.054Z,100797.06
2018-07-11T20:33:05.911Z,100796.27
2018-07-11T20:35:35.007Z,100803.34
2018-07-11T20:38:06.038Z,100806.56
2018-07-11T20:40:35.914Z,100816.71
2018-07-11T20:43:06.963Z,100805.05
2018-07-11T20:45:36.656Z,100808.84
2018-07-11T20:48:09.254Z,100807.38
2018-07-11T20:50:38.640Z,100809.41
2018-07-11T20:53:07.086Z,100809.38
2018-07-11T20:55:35.933Z,100806.66
2018-07-11T20:59:19.209Z,100809.03
2018-07-11T21:01:57.612Z,100809.43
2018-07-11T21:04:46.150Z,100810.34
2018-07-11T21:08:27.497Z,100813.19
2018-07-11T21:11:06.989Z,100825.47
2018-07-11T21:13:46.388Z,100836.12
2018-07-11T21:18:57.476Z,100843.96
2018-07-11T21:21:25.894Z,100847.41
2018-07-11T21:23:54.434Z,100849.90
2018-07-11T21:26:22.834Z,100860.41
2018-07-11T21:28:51.480Z,100850.28
2018-07-11T21:31:19.837Z,100840.84
2018-07-11T21:33:48.483Z,100831.58
2018-07-11T21:36:17.034Z,100831.58
2018-07-11T21:38:45.393Z,100822.14
2018-07-11T21:41:14.401Z,100826.35
2018-07-11T21:43:43.660Z,100823.30
2018-07-11T21:46:14.453Z,100820.03
2018-07-11T21:48:44.049Z,100829.77
2018-07-11T21:51:13.405Z,100822.66
2018-07-11T21:53:42.757Z,100825.88
2018-07-11T21:56:12.610Z,100832.42
2018-07-11T21:58:41.193Z,100816.44
2018-07-11T22:01:10.769Z,100806.66
2018-07-11T22:03:40.004Z,100804.79
2018-07-11T22:06:09.364Z,100800.68
2018-07-11T22:08:38.593Z,100797.13
2018-07-11T22:11:06.937Z,100793.64
2018-07-11T22:13:36.469Z,100801.03
2018-07-11T22:16:06.162Z,100798.66
2018-07-11T22:18:40.879Z,100792.23
2018-07-11T22:21:09.281Z,100794.23
2018-07-11T22:23:36.656Z,100793.08
2018-07-11T22:26:05.125Z,100787.84
2018-07-11T22:28:32.906Z,100783.53
2018-07-11T22:31:00.197Z,100783.78
2018-07-11T22:33:28.265Z,100785.16
2018-07-11T22:35:55.587Z,100788.97
2018-07-11T22:38:22.873Z,100784.69
2018-07-11T22:40:50.150Z,100780.10
2018-07-11T22:43:17.432Z,100777.45
2018-07-11T22:45:44.705Z,100773.77
2018-07-11T22:48:11.997Z,100767.38
2018-07-11T22:50:39.305Z,100769.33
2018-07-11T22:53:06.592Z,100769.66
2018-07-11T22:55:34.267Z,100762.61
2018-07-11T22:58:01.796Z,100767.25
2018-07-11T23:00:29.590Z,100761.92
2018-07-11T23:02:56.869Z,100760.19
2018-07-11T23:05:24.955Z,100759.17
2018-07-11T23:07:52.241Z,100754.33
2018-07-11T23:10:19.565Z,100750.50
2018-07-11T23:12:46.839Z,100754.92
2018-07-11T23:15:14.141Z,100752.80
2018-07-11T23:17:42.217Z,100754.86
2018-07-11T23:20:10.285Z,100756.48
2018-07-11T23:22:37.569Z,100758.56
2018-07-11T23:25:05.238Z,100752.38
2018-07-11T23:27:34.086Z,100747.44
2018-07-11T23:30:01.380Z,100747.64
2018-07-11T23:32:28.662Z,100749.84
2018-07-11T23:34:55.963Z,100744.38
2018-07-11T23:37:24.024Z,100738.34
2018-07-11T23:39:51.313Z,100739.19
2018-07-11T23:42:18.617Z,100743.05
2018-07-11T23:44:45.905Z,100739.45
2018-07-11T23:47:13.996Z,100743.47
2018-07-11T23:49:41.283Z,100744.38
2018-07-11T23:52:08.569Z,100740.77
2018-07-11T23:54:35.861Z,100736.82
2018-07-11T23:57:04.697Z,100734.46
2018-07-11T23:59:32.401Z,100731.50
